sensor_id;sensor_type;location;lat;lon;timestamp;pressure;altitude;pressure_sealevel;temperature;humidity
6218;BME280;3142;48.206;11.550;2022-10-16T00:00:47;95794.00;;;15.84;84.16
6218;BME280;3142;48.206;11.550;2022-10-16T00:03:14;95796.88;;;15.82;84.44
6218;BME280;3142;48.206;11.550;2022-10-16T00:05:42;95797.44;;;15.84;84.49
6218;BME280;3142;48.206;11.550;2022-10-16T00:08:10;95802.25;;;15.87;84.01
6218;BME280;3142;48.206;11.550;2022-10-16T00:10:37;95800.44;;;15.88;84.16
6218;BME280;3142;48.206;11.550;2022-10-16T00:13:04;95811.56;;;15.90;83.94
6218;BME280;3142;48.206;11.550;2022-10-16T00:15:34;95804.66;;;15.89;83.81
6218;BME280;3142;48.206;11.550;2022-10-16T00:18:02;95802.50;;;15.86;83.69
6218;BME280;3142;48.206;11.550;2022-10-16T00:20:28;95804.69;;;15.77;84.20
6218;BME280;3142;48.206;11.550;2022-10-16T00:22:56;95794.34;;;15.76;84.29
6218;BME280;3142;48.206;11.550;2022-10-16T00:25:22;95787.59;;;15.68;84.98
6218;BME280;3142;48.206;11.550;2022-10-16T00:27:49;95798.09;;;15.56;84.98
6218;BME280;3142;48.206;11.550;2022-10-16T00:30:15;95800.06;;;15.49;85.79
6218;BME280;3142;48.206;11.550;2022-10-16T00:32:43;95802.47;;;15.51;86.05
6218;BME280;3142;48.206;11.550;2022-10-16T00:35:10;95793.28;;;15.53;86.18
6218;BME280;3142;48.206;11.550;2022-10-16T00:37:36;95794.66;;;15.56;85.90
6218;BME280;3142;48.206;11.550;2022-10-16T00:40:03;95792.50;;;15.53;86.16
6218;BME280;3142;48.206;11.550;2022-10-16T00:42:30;95799.34;;;15.42;86.42
6218;BME280;3142;48.206;11.550;2022-10-16T00:44:57;95806.00;;;15.45;85.97
6218;BME280;3142;48.206;11.550;2022-10-16T00:47:26;95799.91;;;15.44;86.64
6218;BME280;3142;48.206;11.550;2022-10-16T00:50:00;95803.81;;;15.41;86.30
6218;BME280;3142;48.206;11.550;2022-10-16T00:52:28;95808.41;;;15.46;86.11
6218;BME280;3142;48.206;11.550;2022-10-16T00:54:55;95814.38;;;15.53;85.99
6218;BME280;3142;48.206;11.550;2022-10-16T00:57:22;95812.22;;;15.50;85.85
6218;BME280;3142;48.206;11.550;2022-10-16T00:59:49;95813.13;;;15.56;85.59
6218;BME280;3142;48.206;11.550;2022-10-16T01:02:16;95813.94;;;15.56;85.48
6218;BME280;3142;48.206;11.550;2022-10-16T01:04:45;95811.28;;;15.56;85.46
6218;BME280;3142;48.206;11.550;2022-10-16T01:07:18;95814.28;;;15.60;85.05
6218;BME280;3142;48.206;11.550;2022-10-16T01:09:57;95823.38;;;15.64;85.39
6218;BME280;3142;48.206;11.550;2022-10-16T01:12:36;95825.66;;;15.60;85.01
6218;BME280;3142;48.206;11.550;2022-10-16T01:15:10;95822.41;;;15.58;84.77
6218;BME280;3142;48.206;11.550;2022-10-16T01:17:41;95826.06;;;15.57;85.12
6218;BME280;3142;48.206;11.550;2022-10-16T01:20:13;95841.09;;;15.57;85.00
6218;BME280;3142;48.206;11.550;2022-10-16T01:22:59;95831.34;;;15.57;84.99
6218;BME280;3142;48.206;11.550;2022-10-16T01:25:37;95823.63;;;15.62;84.71
6218;BME280;3142;48.206;11.550;2022-10-16T01:28:09;95827.69;;;15.58;84.74
6218;BME280;3142;48.206;11.550;2022-10-16T01:30:37;95828.72;;;15.57;84.40
6218;BME280;3142;48.206;11.550;2022-10-16T01:33:10;95826.69;;;15.59;84.86
6218;BME280;3142;48.206;11.550;2022-10-16T01:35:43;95830.56;;;15.57;84.46
6218;BME280;3142;48.206;11.550;2022-10-16T01:38:16;95821.72;;;15.51;84.37
6218;BME280;3142;48.206;11.550;2022-10-16T01:40:46;95820.47;;;15.54;84.64
6218;BME280;3142;48.206;11.550;2022-10-16T01:43:19;95808.66;;;15.56;84.38
6218;BME280;3142;48.206;11.550;2022-10-16T01:45:47;95810.25;;;15.57;84.35
6218;BME280;3142;48.206;11.550;2022-10-16T01:48:18;95806.59;;;15.58;84.05
6218;BME280;3142;48.206;11.550;2022-10-16T01:50:52;95812.09;;;15.57;84.20
6218;BME280;3142;48.206;11.550;2022-10-16T01:53:20;95808.88;;;15.55;83.65
6218;BME280;3142;48.206;11.550;2022-10-16T01:55:49;95814.50;;;15.58;83.66
6218;BME280;3142;48.206;11.550;2022-10-16T01:58:17;95813.50;;;15.59;84.01
6218;BME280;3142;48.206;11.550;2022-10-16T02:00:45;95814.88;;;15.62;83.33
6218;BME280;3142;48.206;11.550;2022-10-16T02:03:15;95805.72;;;15.64;83.54
6218;BME280;3142;48.206;11.550;2022-10-16T02:05:46;95803.94;;;15.58;83.13
6218;BME280;3142;48.206;11.550;2022-10-16T02:08:13;95800.41;;;15.53;83.57
6218;BME280;3142;48.206;11.550;2022-10-16T02:10:40;95803.81;;;15.41;83.67
6218;BME280;3142;48.206;11.550;2022-10-16T02:13:10;95812.06;;;15.45;83.89
6218;BME280;3142;48.206;11.550;2022-10-16T02:15:39;95803.50;;;15.50;83.76
6218;BME280;3142;48.206;11.550;2022-10-16T02:18:06;95807.03;;;15.55;83.46
6218;BME280;3142;48.206;11.550;2022-10-16T02:20:37;95800.63;;;15.51;83.63
6218;BME280;3142;48.206;11.550;2022-10-16T02:23:07;95801.53;;;15.45;83.46
6218;BME280;3142;48.206;11.550;2022-10-16T02:25:38;95799.22;;;15.49;83.79
6218;BME280;3142;48.206;11.550;2022-10-16T02:28:08;95806.72;;;15.52;83.60
6218;BME280;3142;48.206;11.550;2022-10-16T02:30:42;95808.53;;;15.51;83.23
6218;BME280;3142;48.206;11.550;2022-10-16T02:33:11;95816.09;;;15.48;83.49
6218;BME280;3142;48.206;11.550;2022-10-16T02:35:39;95814.25;;;15.48;83.50
6218;BME280;3142;48.206;11.550;2022-10-16T02:38:07;95820.78;;;15.46;83.36
6218;BME280;3142;48.206;11.550;2022-10-16T02:40:35;95821.34;;;15.48;82.97
6218;BME280;3142;48.206;11.550;2022-10-16T02:43:03;95822.38;;;15.47;83.30
6218;BME280;3142;48.206;11.550;2022-10-16T02:45:31;95822.53;;;15.52;83.18
6218;BME280;3142;48.206;11.550;2022-10-16T02:47:59;95821.50;;;15.53;82.79
6218;BME280;3142;48.206;11.550;2022-10-16T02:50:25;95814.84;;;15.50;82.85
6218;BME280;3142;48.206;11.550;2022-10-16T02:52:52;95824.13;;;15.53;82.59
6218;BME280;3142;48.206;11.550;2022-10-16T02:55:18;95833.75;;;15.47;82.40
6218;BME280;3142;48.206;11.550;2022-10-16T02:57:45;95837.97;;;15.48;82.67
6218;BME280;3142;48.206;11.550;2022-10-16T03:00:13;95827.44;;;15.48;82.85
6218;BME280;3142;48.206;11.550;2022-10-16T03:02:40;95824.59;;;15.50;82.20
6218;BME280;3142;48.206;11.550;2022-10-16T03:05:09;95823.78;;;15.49;81.73
6218;BME280;3142;48.206;11.550;2022-10-16T03:07:35;95820.66;;;15.40;82.25
6218;BME280;3142;48.206;11.550;2022-10-16T03:10:02;95818.91;;;15.34;82.67
6218;BME280;3142;48.206;11.550;2022-10-16T03:12:29;95815.47;;;15.22;82.98
6218;BME280;3142;48.206;11.550;2022-10-16T03:14:56;95812.25;;;15.20;83.05
6218;BME280;3142;48.206;11.550;2022-10-16T03:17:24;95816.38;;;15.16;82.72
6218;BME280;3142;48.206;11.550;2022-10-16T03:19:51;95816.03;;;15.13;82.90
6218;BME280;3142;48.206;11.550;2022-10-16T03:22:19;95819.00;;;15.16;83.07
6218;BME280;3142;48.206;11.550;2022-10-16T03:24:45;95826.22;;;15.21;82.96
6218;BME280;3142;48.206;11.550;2022-10-16T03:27:12;95826.03;;;15.22;82.53
6218;BME280;3142;48.206;11.550;2022-10-16T03:29:38;95827.88;;;15.22;82.59
6218;BME280;3142;48.206;11.550;2022-10-16T03:32:05;95824.41;;;15.21;82.58
6218;BME280;3142;48.206;11.550;2022-10-16T03:34:31;95822.78;;;15.20;82.11
6218;BME280;3142;48.206;11.550;2022-10-16T03:36:57;95817.31;;;15.22;82.02
6218;BME280;3142;48.206;11.550;2022-10-16T03:39:25;95824.84;;;15.18;82.12
6218;BME280;3142;48.206;11.550;2022-10-16T03:41:52;95833.34;;;15.20;82.80
6218;BME280;3142;48.206;11.550;2022-10-16T03:44:18;95831.66;;;15.26;82.17
6218;BME280;3142;48.206;11.550;2022-10-16T03:46:45;95836.22;;;15.30;82.76
6218;BME280;3142;48.206;11.550;2022-10-16T03:49:11;95838.19;;;15.35;81.92
6218;BME280;3142;48.206;11.550;2022-10-16T03:51:38;95844.63;;;15.39;81.81
6218;BME280;3142;48.206;11.550;2022-10-16T03:54:04;95842.56;;;15.41;81.47
6218;BME280;3142;48.206;11.550;2022-10-16T03:56:32;95849.78;;;15.46;81.47
6218;BME280;3142;48.206;11.550;2022-10-16T03:58:59;95837.78;;;15.50;81.10
6218;BME280;3142;48.206;11.550;2022-10-16T04:01:25;95836.75;;;15.51;81.12
6218;BME280;3142;48.206;11.550;2022-10-16T04:03:52;95839.97;;;15.53;81.29
6218;BME280;3142;48.206;11.550;2022-10-16T04:06:18;95839.16;;;15.52;80.71
6218;BME280;3142;48.206;11.550;2022-10-16T04:08:44;95840.53;;;15.55;81.21
6218;BME280;3142;48.206;11.550;2022-10-16T04:11:11;95842.72;;;15.58;80.85
6218;BME280;3142;48.206;11.550;2022-10-16T04:13:39;95845.00;;;15.54;80.88
6218;BME280;3142;48.206;11.550;2022-10-16T04:16:06;95840.03;;;15.46;80.64
6218;BME280;3142;48.206;11.550;2022-10-16T04:18:33;95837.06;;;15.43;80.57
6218;BME280;3142;48.206;11.550;2022-10-16T04:21:02;95844.50;;;15.34;80.85
6218;BME280;3142;48.206;11.550;2022-10-16T04:23:29;95835.19;;;15.31;81.26
6218;BME280;3142;48.206;11.550;2022-10-16T04:25:56;95831.31;;;15.34;81.26
6218;BME280;3142;48.206;11.550;2022-10-16T04:28:22;95828.47;;;15.35;81.39
6218;BME280;3142;48.206;11.550;2022-10-16T04:30:50;95837.38;;;15.34;81.39
6218;BME280;3142;48.206;11.550;2022-10-16T04:33:16;95833.81;;;15.29;81.60
6218;BME280;3142;48.206;11.550;2022-10-16T04:35:43;95834.38;;;15.19;81.83
6218;BME280;3142;48.206;11.550;2022-10-16T04:38:10;95834.94;;;15.09;82.01
6218;BME280;3142;48.206;11.550;2022-10-16T04:40:36;95845.09;;;15.06;82.75
6218;BME280;3142;48.206;11.550;2022-10-16T04:43:02;95853.00;;;15.06;82.89
6218;BME280;3142;48.206;11.550;2022-10-16T04:45:29;95845.25;;;15.11;82.50
6218;BME280;3142;48.206;11.550;2022-10-16T04:47:58;95843.22;;;15.25;82.15
6218;BME280;3142;48.206;11.550;2022-10-16T04:50:24;95847.59;;;15.31;82.20
6218;BME280;3142;48.206;11.550;2022-10-16T04:52:51;95850.56;;;15.34;82.12
6218;BME280;3142;48.206;11.550;2022-10-16T04:55:17;95844.75;;;15.44;81.66
6218;BME280;3142;48.206;11.550;2022-10-16T04:57:44;95837.63;;;15.45;81.52
6218;BME280;3142;48.206;11.550;2022-10-16T05:00:11;95841.53;;;15.42;81.67
6218;BME280;3142;48.206;11.550;2022-10-16T05:02:37;95831.09;;;15.35;81.23
6218;BME280;3142;48.206;11.550;2022-10-16T05:05:06;95821.56;;;15.34;81.18
6218;BME280;3142;48.206;11.550;2022-10-16T05:07:33;95828.09;;;15.32;81.25
6218;BME280;3142;48.206;11.550;2022-10-16T05:09:59;95845.50;;;15.33;81.53
6218;BME280;3142;48.206;11.550;2022-10-16T05:12:26;95852.78;;;15.37;81.81
6218;BME280;3142;48.206;11.550;2022-10-16T05:14:52;95850.94;;;15.38;82.26
6218;BME280;3142;48.206;11.550;2022-10-16T05:17:23;95844.50;;;15.34;82.24
6218;BME280;3142;48.206;11.550;2022-10-16T05:19:50;95844.72;;;15.32;82.25
6218;BME280;3142;48.206;11.550;2022-10-16T05:22:17;95842.31;;;15.31;82.17
6218;BME280;3142;48.206;11.550;2022-10-16T05:24:44;95840.34;;;15.26;81.49
6218;BME280;3142;48.206;11.550;2022-10-16T05:27:10;95842.19;;;15.26;81.54
6218;BME280;3142;48.206;11.550;2022-10-16T05:29:44;95855.03;;;15.22;81.36
6218;BME280;3142;48.206;11.550;2022-10-16T05:32:10;95866.16;;;15.24;82.04
6218;BME280;3142;48.206;11.550;2022-10-16T05:34:37;95859.97;;;15.30;81.89
6218;BME280;3142;48.206;11.550;2022-10-16T05:37:03;95864.91;;;15.38;81.08
6218;BME280;3142;48.206;11.550;2022-10-16T05:39:31;95862.84;;;15.40;81.87
6218;BME280;3142;48.206;11.550;2022-10-16T05:41:58;95872.72;;;15.45;81.80
6218;BME280;3142;48.206;11.550;2022-10-16T05:44:24;95872.88;;;15.50;81.50
6218;BME280;3142;48.206;11.550;2022-10-16T05:46:51;95865.66;;;15.57;80.81
6218;BME280;3142;48.206;11.550;2022-10-16T05:49:17;95874.00;;;15.54;80.90
6218;BME280;3142;48.206;11.550;2022-10-16T05:51:44;95873.06;;;15.49;81.32
6218;BME280;3142;48.206;11.550;2022-10-16T05:54:10;95877.75;;;15.47;82.14
6218;BME280;3142;48.206;11.550;2022-10-16T05:56:38;95878.13;;;15.50;82.25
6218;BME280;3142;48.206;11.550;2022-10-16T05:59:05;95875.13;;;15.47;82.20
6218;BME280;3142;48.206;11.550;2022-10-16T06:01:32;95877.75;;;15.47;82.52
6218;BME280;3142;48.206;11.550;2022-10-16T06:03:58;95881.09;;;15.42;82.31
6218;BME280;3142;48.206;11.550;2022-10-16T06:06:26;95877.41;;;15.43;81.94
6218;BME280;3142;48.206;11.550;2022-10-16T06:08:53;95883.84;;;15.35;81.72
6218;BME280;3142;48.206;11.550;2022-10-16T06:11:21;95894.22;;;15.30;82.14
6218;BME280;3142;48.206;11.550;2022-10-16T06:13:51;95891.28;;;15.38;81.49
6218;BME280;3142;48.206;11.550;2022-10-16T06:16:18;95896.00;;;15.48;81.36
6218;BME280;3142;48.206;11.550;2022-10-16T06:18:46;95892.47;;;15.54;81.01
6218;BME280;3142;48.206;11.550;2022-10-16T06:21:16;95891.91;;;15.52;80.82
6218;BME280;3142;48.206;11.550;2022-10-16T06:23:43;95900.38;;;15.54;80.78
6218;BME280;3142;48.206;11.550;2022-10-16T06:26:12;95898.91;;;15.58;80.50
6218;BME280;3142;48.206;11.550;2022-10-16T06:28:39;95906.19;;;15.63;80.33
6218;BME280;3142;48.206;11.550;2022-10-16T06:31:09;95911.22;;;15.64;80.40
6218;BME280;3142;48.206;11.550;2022-10-16T06:33:36;95909.63;;;15.63;80.50
6218;BME280;3142;48.206;11.550;2022-10-16T06:36:04;95914.09;;;15.63;80.71
6218;BME280;3142;48.206;11.550;2022-10-16T06:38:31;95909.03;;;15.61;80.74
6218;BME280;3142;48.206;11.550;2022-10-16T06:40:58;95915.09;;;15.62;80.66
6218;BME280;3142;48.206;11.550;2022-10-16T06:43:25;95914.22;;;15.68;80.44
6218;BME280;3142;48.206;11.550;2022-10-16T06:45:52;95928.31;;;15.74;80.31
6218;BME280;3142;48.206;11.550;2022-10-16T06:48:20;95936.22;;;15.74;80.23
6218;BME280;3142;48.206;11.550;2022-10-16T06:50:55;95926.84;;;15.78;80.18
6218;BME280;3142;48.206;11.550;2022-10-16T06:53:22;95933.50;;;15.80;80.20
6218;BME280;3142;48.206;11.550;2022-10-16T06:55:49;95936.25;;;15.85;79.62
6218;BME280;3142;48.206;11.550;2022-10-16T06:58:15;95937.88;;;15.86;79.59
6218;BME280;3142;48.206;11.550;2022-10-16T07:00:42;95939.63;;;15.92;78.90
6218;BME280;3142;48.206;11.550;2022-10-16T07:03:08;95939.50;;;15.99;78.71
6218;BME280;3142;48.206;11.550;2022-10-16T07:05:38;95946.84;;;15.97;78.72
6218;BME280;3142;48.206;11.550;2022-10-16T07:08:05;95953.63;;;16.05;79.04
6218;BME280;3142;48.206;11.550;2022-10-16T07:10:31;95951.69;;;16.12;78.60
6218;BME280;3142;48.206;11.550;2022-10-16T07:12:58;95949.28;;;16.22;78.05
6218;BME280;3142;48.206;11.550;2022-10-16T07:15:25;95951.47;;;16.37;77.31
6218;BME280;3142;48.206;11.550;2022-10-16T07:17:51;95955.16;;;16.47;76.85
6218;BME280;3142;48.206;11.550;2022-10-16T07:20:18;95956.53;;;16.38;77.39
6218;BME280;3142;48.206;11.550;2022-10-16T07:22:46;95950.34;;;16.33;77.82
6218;BME280;3142;48.206;11.550;2022-10-16T07:25:13;95954.34;;;16.35;77.07
6218;BME280;3142;48.206;11.550;2022-10-16T07:27:39;95962.50;;;16.69;76.37
6218;BME280;3142;48.206;11.550;2022-10-16T07:30:06;95957.41;;;17.42;74.40
6218;BME280;3142;48.206;11.550;2022-10-16T07:32:33;95959.97;;;17.54;74.58
6218;BME280;3142;48.206;11.550;2022-10-16T07:35:00;95968.91;;;17.76;74.75
6218;BME280;3142;48.206;11.550;2022-10-16T07:37:26;95974.78;;;18.79;71.32
6218;BME280;3142;48.206;11.550;2022-10-16T07:39:54;95975.47;;;19.13;70.38
6218;BME280;3142;48.206;11.550;2022-10-16T07:42:21;95979.38;;;19.06;70.62
6218;BME280;3142;48.206;11.550;2022-10-16T07:44:47;95986.59;;;18.72;70.55
6218;BME280;3142;48.206;11.550;2022-10-16T07:47:13;95990.09;;;18.94;70.68
6218;BME280;3142;48.206;11.550;2022-10-16T07:49:40;95991.81;;;19.71;68.34
6218;BME280;3142;48.206;11.550;2022-10-16T07:52:06;95987.03;;;20.27;66.28
6218;BME280;3142;48.206;11.550;2022-10-16T07:54:33;95990.59;;;20.75;64.29
6218;BME280;3142;48.206;11.550;2022-10-16T07:57:01;95991.50;;;20.95;63.70
6218;BME280;3142;48.206;11.550;2022-10-16T07:59:27;95992.16;;;21.13;61.66
6218;BME280;3142;48.206;11.550;2022-10-16T08:01:54;95999.75;;;21.41;60.90
6218;BME280;3142;48.206;11.550;2022-10-16T08:04:20;95989.97;;;21.57;60.09
6218;BME280;3142;48.206;11.550;2022-10-16T08:06:47;95991.88;;;21.77;58.94
6218;BME280;3142;48.206;11.550;2022-10-16T08:09:14;95999.34;;;21.90;57.89
6218;BME280;3142;48.206;11.550;2022-10-16T08:11:40;95995.66;;;22.06;57.55
6218;BME280;3142;48.206;11.550;2022-10-16T08:14:08;95996.25;;;22.24;57.13
6218;BME280;3142;48.206;11.550;2022-10-16T08:16:35;96003.97;;;22.45;56.67
6218;BME280;3142;48.206;11.550;2022-10-16T08:19:01;96003.69;;;22.67;55.61
6218;BME280;3142;48.206;11.550;2022-10-16T08:21:27;96001.03;;;22.77;54.88
6218;BME280;3142;48.206;11.550;2022-10-16T08:23:54;96006.63;;;22.91;54.75
6218;BME280;3142;48.206;11.550;2022-10-16T08:26:21;96005.00;;;23.05;54.11
6218;BME280;3142;48.206;11.550;2022-10-16T08:28:49;96008.94;;;23.23;53.39
6218;BME280;3142;48.206;11.550;2022-10-16T08:31:17;96010.50;;;23.34;52.25
6218;BME280;3142;48.206;11.550;2022-10-16T08:33:44;96014.47;;;23.47;52.91
6218;BME280;3142;48.206;11.550;2022-10-16T08:36:12;96020.53;;;23.68;52.50
6218;BME280;3142;48.206;11.550;2022-10-16T08:38:39;96015.59;;;23.96;52.11
6218;BME280;3142;48.206;11.550;2022-10-16T08:41:23;96019.75;;;24.17;51.46
6218;BME280;3142;48.206;11.550;2022-10-16T08:47:02;96024.44;;;24.69;50.28
6218;BME280;3142;48.206;11.550;2022-10-16T08:49:31;96030.69;;;24.89;50.13
6218;BME280;3142;48.206;11.550;2022-10-16T08:51:58;96029.00;;;24.98;49.05
6218;BME280;3142;48.206;11.550;2022-10-16T08:54:29;96030.06;;;25.02;47.99
6218;BME280;3142;48.206;11.550;2022-10-16T08:56:56;96036.63;;;25.15;48.16
6218;BME280;3142;48.206;11.550;2022-10-16T08:59:26;96039.22;;;25.25;47.41
6218;BME280;3142;48.206;11.550;2022-10-16T09:01:53;96036.88;;;25.42;47.29
6218;BME280;3142;48.206;11.550;2022-10-16T09:04:50;96047.97;;;25.54;47.25
6218;BME280;3142;48.206;11.550;2022-10-16T09:07:26;96045.75;;;25.61;46.67
6218;BME280;3142;48.206;11.550;2022-10-16T09:10:14;96040.00;;;25.73;45.98
6218;BME280;3142;48.206;11.550;2022-10-16T09:12:51;96041.47;;;25.84;45.51
6218;BME280;3142;48.206;11.550;2022-10-16T09:15:27;96039.94;;;25.78;45.40
6218;BME280;3142;48.206;11.550;2022-10-16T09:18:00;96038.97;;;25.69;45.63
6218;BME280;3142;48.206;11.550;2022-10-16T09:20:38;96044.03;;;25.94;44.89
6218;BME280;3142;48.206;11.550;2022-10-16T09:23:14;96044.81;;;26.14;44.28
6218;BME280;3142;48.206;11.550;2022-10-16T09:25:45;96040.91;;;26.25;44.16
6218;BME280;3142;48.206;11.550;2022-10-16T09:28:13;96041.50;;;26.41;44.12
6218;BME280;3142;48.206;11.550;2022-10-16T09:30:40;96046.22;;;26.49;43.77
6218;BME280;3142;48.206;11.550;2022-10-16T09:33:07;96040.16;;;26.57;42.77
6218;BME280;3142;48.206;11.550;2022-10-16T09:35:38;96042.69;;;26.67;42.65
6218;BME280;3142;48.206;11.550;2022-10-16T09:38:06;96039.91;;;26.72;41.90
6218;BME280;3142;48.206;11.550;2022-10-16T09:40:35;96051.28;;;26.83;42.11
6218;BME280;3142;48.206;11.550;2022-10-16T09:43:10;96047.75;;;26.88;41.28
6218;BME280;3142;48.206;11.550;2022-10-16T09:45:39;96051.13;;;26.93;41.18
6218;BME280;3142;48.206;11.550;2022-10-16T09:48:11;96057.75;;;27.01;40.87
6218;BME280;3142;48.206;11.550;2022-10-16T09:50:39;96053.03;;;26.93;41.34
6218;BME280;3142;48.206;11.550;2022-10-16T09:53:11;96059.53;;;27.05;41.24
6218;BME280;3142;48.206;11.550;2022-10-16T09:55:47;96061.34;;;27.24;40.08
6218;BME280;3142;48.206;11.550;2022-10-16T09:58:14;96067.03;;;27.36;40.49
6218;BME280;3142;48.206;11.550;2022-10-16T10:00:41;96072.44;;;27.50;40.28
6218;BME280;3142;48.206;11.550;2022-10-16T10:03:10;96061.69;;;27.63;39.73
6218;BME280;3142;48.206;11.550;2022-10-16T10:05:39;96058.19;;;27.63;40.25
6218;BME280;3142;48.206;11.550;2022-10-16T10:08:06;96065.91;;;27.69;39.42
6218;BME280;3142;48.206;11.550;2022-10-16T10:10:41;96059.69;;;27.96;39.71
6218;BME280;3142;48.206;11.550;2022-10-16T10:13:17;96056.97;;;28.10;38.91
6218;BME280;3142;48.206;11.550;2022-10-16T10:15:45;96062.56;;;28.00;38.33
6218;BME280;3142;48.206;11.550;2022-10-16T10:18:16;96053.59;;;28.04;38.56
6218;BME280;3142;48.206;11.550;2022-10-16T10:20:57;96064.81;;;28.34;38.68
6218;BME280;3142;48.206;11.550;2022-10-16T10:23:25;96072.34;;;28.46;38.15
6218;BME280;3142;48.206;11.550;2022-10-16T10:25:56;96068.16;;;28.53;37.55
6218;BME280;3142;48.206;11.550;2022-10-16T10:28:42;96076.41;;;28.79;37.72
6218;BME280;3142;48.206;11.550;2022-10-16T10:31:13;96068.31;;;28.93;37.55
6218;BME280;3142;48.206;11.550;2022-10-16T10:33:45;96063.56;;;28.99;36.89
6218;BME280;3142;48.206;11.550;2022-10-16T10:36:23;96059.69;;;29.13;37.36
6218;BME280;3142;48.206;11.550;2022-10-16T10:38:54;96053.50;;;29.13;35.65
6218;BME280;3142;48.206;11.550;2022-10-16T10:41:36;96066.56;;;29.19;35.46
6218;BME280;3142;48.206;11.550;2022-10-16T10:44:12;96064.81;;;29.24;35.45
6218;BME280;3142;48.206;11.550;2022-10-16T10:46:47;96061.00;;;29.25;34.91
6218;BME280;3142;48.206;11.550;2022-10-16T10:49:26;96063.03;;;29.19;34.75
6218;BME280;3142;48.206;11.550;2022-10-16T10:52:10;96058.25;;;29.16;34.27
6218;BME280;3142;48.206;11.550;2022-10-16T10:54:43;96058.94;;;29.22;34.84
6218;BME280;3142;48.206;11.550;2022-10-16T10:57:21;96065.78;;;29.28;34.77
6218;BME280;3142;48.206;11.550;2022-10-16T10:59:58;96061.84;;;29.34;34.80
6218;BME280;3142;48.206;11.550;2022-10-16T11:02:34;96060.78;;;29.43;34.64
6218;BME280;3142;48.206;11.550;2022-10-16T11:05:28;96063.06;;;29.59;34.30
6218;BME280;3142;48.206;11.550;2022-10-16T11:08:00;96061.38;;;29.71;34.54
6218;BME280;3142;48.206;11.550;2022-10-16T11:10:31;96062.66;;;29.74;33.90
6218;BME280;3142;48.206;11.550;2022-10-16T11:13:10;96056.81;;;29.81;33.99
6218;BME280;3142;48.206;11.550;2022-10-16T11:15:43;96058.19;;;29.69;33.00
6218;BME280;3142;48.206;11.550;2022-10-16T11:18:16;96061.53;;;29.66;33.57
6218;BME280;3142;48.206;11.550;2022-10-16T11:20:49;96060.06;;;29.60;33.37
6218;BME280;3142;48.206;11.550;2022-10-16T11:23:23;96054.81;;;29.55;33.09
6218;BME280;3142;48.206;11.550;2022-10-16T11:25:52;96053.84;;;29.51;32.61
6218;BME280;3142;48.206;11.550;2022-10-16T11:28:23;96056.31;;;29.39;33.03
6218;BME280;3142;48.206;11.550;2022-10-16T11:30:55;96051.25;;;29.37;33.07
6218;BME280;3142;48.206;11.550;2022-10-16T11:33:28;96049.50;;;29.41;33.35
6218;BME280;3142;48.206;11.550;2022-10-16T11:36:01;96062.19;;;29.41;33.16
6218;BME280;3142;48.206;11.550;2022-10-16T11:38:36;96055.47;;;28.76;34.10
6218;BME280;3142;48.206;11.550;2022-10-16T11:41:13;96048.00;;;28.15;34.11
6218;BME280;3142;48.206;11.550;2022-10-16T11:43:43;96048.94;;;27.55;35.15
6218;BME280;3142;48.206;11.550;2022-10-16T11:46:16;96052.03;;;27.62;34.67
6218;BME280;3142;48.206;11.550;2022-10-16T11:48:49;96047.91;;;28.06;34.65
6218;BME280;3142;48.206;11.550;2022-10-16T11:51:23;96046.53;;;28.45;34.59
6218;BME280;3142;48.206;11.550;2022-10-16T11:53:57;96041.19;;;28.76;34.12
6218;BME280;3142;48.206;11.550;2022-10-16T11:56:25;96051.44;;;28.87;33.99
6218;BME280;3142;48.206;11.550;2022-10-16T11:58:57;96047.13;;;28.86;34.44
6218;BME280;3142;48.206;11.550;2022-10-16T12:01:29;96051.13;;;28.67;34.08
6218;BME280;3142;48.206;11.550;2022-10-16T12:04:06;96047.00;;;28.47;33.71
6218;BME280;3142;48.206;11.550;2022-10-16T12:06:41;96048.66;;;28.34;33.61
6218;BME280;3142;48.206;11.550;2022-10-16T12:09:15;96045.66;;;28.22;34.69
6218;BME280;3142;48.206;11.550;2022-10-16T12:11:42;96043.53;;;28.10;34.91
6218;BME280;3142;48.206;11.550;2022-10-16T12:14:20;96044.50;;;28.28;35.67
6218;BME280;3142;48.206;11.550;2022-10-16T12:16:52;96050.97;;;28.27;36.33
6218;BME280;3142;48.206;11.550;2022-10-16T12:19:20;96044.38;;;28.19;35.76
6218;BME280;3142;48.206;11.550;2022-10-16T12:21:48;96042.47;;;28.20;36.15
6218;BME280;3142;48.206;11.550;2022-10-16T12:24:31;96038.72;;;28.07;35.98
6218;BME280;3142;48.206;11.550;2022-10-16T12:26:58;96035.94;;;28.12;36.63
6218;BME280;3142;48.206;11.550;2022-10-16T12:29:33;96037.53;;;28.13;36.93
6218;BME280;3142;48.206;11.550;2022-10-16T12:32:00;96032.22;;;28.22;36.42
6218;BME280;3142;48.206;11.550;2022-10-16T12:34:31;96037.81;;;28.25;36.77
6218;BME280;3142;48.206;11.550;2022-10-16T12:37:10;96039.78;;;28.33;36.85
6218;BME280;3142;48.206;11.550;2022-10-16T12:39:39;96035.88;;;28.40;37.19
6218;BME280;3142;48.206;11.550;2022-10-16T12:42:20;96030.91;;;28.33;36.23
6218;BME280;3142;48.206;11.550;2022-10-16T12:44:47;96038.59;;;28.26;37.28
6218;BME280;3142;48.206;11.550;2022-10-16T12:47:20;96030.53;;;28.26;36.83
6218;BME280;3142;48.206;11.550;2022-10-16T12:49:49;96028.34;;;28.14;36.95
6218;BME280;3142;48.206;11.550;2022-10-16T12:52:27;96026.47;;;28.15;36.13
6218;BME280;3142;48.206;11.550;2022-10-16T12:54:57;96031.69;;;27.97;36.00
6218;BME280;3142;48.206;11.550;2022-10-16T12:57:34;96026.22;;;27.89;36.43
6218;BME280;3142;48.206;11.550;2022-10-16T13:00:14;96027.94;;;27.85;36.17
6218;BME280;3142;48.206;11.550;2022-10-16T13:02:59;96031.31;;;27.77;34.49
6218;BME280;3142;48.206;11.550;2022-10-16T13:05:37;96030.81;;;27.74;34.36
6218;BME280;3142;48.206;11.550;2022-10-16T13:08:26;96022.75;;;27.74;34.14
6218;BME280;3142;48.206;11.550;2022-10-16T13:11:05;96023.44;;;27.80;34.02
6218;BME280;3142;48.206;11.550;2022-10-16T13:16:54;96028.25;;;27.69;34.09
6218;BME280;3142;48.206;11.550;2022-10-16T13:19:29;96031.94;;;27.73;34.24
6218;BME280;3142;48.206;11.550;2022-10-16T13:22:04;96037.19;;;27.79;34.68
6218;BME280;3142;48.206;11.550;2022-10-16T13:24:46;96039.38;;;27.77;34.94
6218;BME280;3142;48.206;11.550;2022-10-16T13:27:24;96036.59;;;27.68;34.81
6218;BME280;3142;48.206;11.550;2022-10-16T13:30:01;96035.31;;;27.65;34.68